createdAt,value
2023-11-15T00:00:53.854Z,987
2023-11-15T00:01:55.596Z,987
2023-11-15T00:02:57.778Z,987
2023-11-15T00:03:58.675Z,987
2023-11-15T00:05:00.686Z,987
2023-11-15T00:06:01.710Z,987
2023-11-15T00:07:04.719Z,986.1
2023-11-15T00:08:08.743Z,986.8
2023-11-15T00:09:11.851Z,987
2023-11-15T00:10:15.289Z,987
2023-11-15T00:11:16.916Z,987
2023-11-15T00:12:18.667Z,987
2023-11-15T00:13:23.505Z,987.1
2023-11-15T00:14:25.694Z,987
2023-11-15T00:15:32.077Z,987
2023-11-15T00:16:33.673Z,987
2023-11-15T00:17:38.296Z,986.9
2023-11-15T00:18:39.629Z,987
2023-11-15T00:19:44.368Z,987
2023-11-15T00:20:45.625Z,987
2023-11-15T00:21:49.037Z,987
2023-11-15T00:22:50.638Z,987
2023-11-15T00:23:51.921Z,987
2023-11-15T00:24:55.893Z,987
2023-11-15T00:25:56.604Z,986.4
2023-11-15T00:26:57.654Z,986.5
2023-11-15T00:27:58.597Z,986.8
2023-11-15T00:28:59.608Z,987
2023-11-15T00:30:00.841Z,987.1
2023-11-15T00:31:03.621Z,987.1
2023-11-15T00:32:04.609Z,986.8
2023-11-15T00:33:08.490Z,987
2023-11-15T00:34:11.684Z,987.1
2023-11-15T00:35:15.519Z,987.1
2023-11-15T00:36:16.674Z,987.1
2023-11-15T00:37:21.065Z,987.1
2023-11-15T00:38:22.913Z,987.1
2023-11-15T00:39:26.139Z,987.1
2023-11-15T00:40:30.336Z,987.2
2023-11-15T00:41:31.619Z,987.2
2023-11-15T00:42:33.936Z,987.2
2023-11-15T00:43:34.641Z,987.2
2023-11-15T00:44:35.622Z,987.2
2023-11-15T00:46:45.860Z,986.9
2023-11-15T00:47:47.656Z,987.1
2023-11-15T00:48:48.862Z,987.2
2023-11-15T00:49:52.626Z,986.5
2023-11-15T00:50:53.620Z,987.1
2023-11-15T00:51:55.700Z,987.3
2023-11-15T00:52:57.018Z,987.3
2023-11-15T00:53:58.606Z,987.3
2023-11-15T00:54:59.728Z,987.3
2023-11-15T00:56:02.929Z,987.3
2023-11-15T00:57:10.040Z,987.3
2023-11-15T00:58:13.628Z,987.3
2023-11-15T00:59:15.635Z,987.3
2023-11-15T01:00:20.788Z,987.3
2023-11-15T01:01:22.423Z,987.3
2023-11-15T01:02:26.596Z,987.3
2023-11-15T01:03:28.105Z,987.3
2023-11-15T01:04:34.355Z,987.3
2023-11-15T01:05:35.890Z,987.4
2023-11-15T01:06:36.613Z,987.4
2023-11-15T01:07:37.613Z,987.3
2023-11-15T01:08:38.817Z,987.3
2023-11-15T01:09:39.616Z,987.3
2023-11-15T01:10:40.629Z,987.3
2023-11-15T01:11:41.660Z,987.3
2023-11-15T01:12:46.251Z,987.3
2023-11-15T01:13:49.274Z,987.3
2023-11-15T01:14:50.852Z,987.4
2023-11-15T01:15:52.195Z,987.3
2023-11-15T01:16:53.666Z,987.3
2023-11-15T01:17:54.999Z,987.3
2023-11-15T01:18:55.623Z,987.3
2023-11-15T01:19:57.778Z,987
2023-11-15T01:20:58.699Z,987.3
2023-11-15T01:21:59.852Z,987.2
2023-11-15T01:23:00.890Z,987.3
2023-11-15T01:24:01.680Z,987.4
2023-11-15T01:25:06.000Z,987.4
2023-11-15T01:26:10.048Z,987.4
2023-11-15T01:27:10.872Z,987.4
2023-11-15T01:28:14.174Z,987.4
2023-11-15T01:29:16.691Z,987.1
2023-11-15T01:30:18.652Z,987.2
2023-11-15T01:31:23.297Z,987.4
2023-11-15T01:32:24.706Z,987.4
2023-11-15T01:33:32.078Z,987.3
2023-11-15T01:34:34.666Z,986.9
2023-11-15T01:35:36.872Z,987.2
2023-11-15T01:36:37.662Z,987.3
2023-11-15T01:37:39.706Z,987.3
2023-11-15T01:38:42.771Z,987.3
2023-11-15T01:39:47.401Z,987.3
2023-11-15T01:40:50.816Z,987.3
2023-11-15T01:41:51.773Z,987.4
2023-11-15T01:42:52.636Z,987.3
2023-11-15T01:43:54.910Z,987.3
2023-11-15T01:44:56.810Z,987.3
2023-11-15T01:46:01.696Z,987.4
2023-11-15T01:47:03.753Z,987.3
2023-11-15T01:48:06.845Z,987.1
2023-11-15T01:49:07.630Z,987.2
2023-11-15T01:50:08.911Z,987.3
2023-11-15T01:51:10.956Z,987.3
2023-11-15T01:52:12.790Z,987.4
2023-11-15T01:53:16.385Z,987.3
2023-11-15T01:54:17.641Z,987.2
2023-11-15T01:55:22.686Z,987.2
2023-11-15T01:56:28.140Z,987.2
2023-11-15T01:57:38.572Z,987.2
2023-11-15T01:58:41.628Z,987.2
2023-11-15T01:59:43.929Z,987.2
2023-11-15T02:00:48.259Z,987.2
2023-11-15T02:01:52.791Z,987
2023-11-15T02:02:54.963Z,987.2
2023-11-15T02:03:56.978Z,987.2
2023-11-15T02:04:58.905Z,987.2
2023-11-15T02:05:59.715Z,987.3
2023-11-15T02:07:10.697Z,987.2
2023-11-15T02:08:16.126Z,987.2
2023-11-15T02:09:17.859Z,987.2
2023-11-15T02:10:18.698Z,987.2
2023-11-15T02:11:19.667Z,987.2
2023-11-15T02:12:27.269Z,986.9
2023-11-15T02:13:30.752Z,986.8
2023-11-15T02:14:32.900Z,987.1
2023-11-15T02:15:34.713Z,987.2
2023-11-15T02:16:36.999Z,987.1
2023-11-15T02:17:40.267Z,987.2
2023-11-15T02:18:42.934Z,987.2
2023-11-15T02:19:44.760Z,987.2
2023-11-15T02:20:46.294Z,987.2
2023-11-15T02:21:50.175Z,987.1
2023-11-15T02:22:56.464Z,987.1
2023-11-15T02:23:57.685Z,987.2
2023-11-15T02:25:02.688Z,987.2
2023-11-15T02:26:04.702Z,987.1
2023-11-15T02:27:13.407Z,987.1
2023-11-15T02:28:18.200Z,987.2
2023-11-15T02:29:27.798Z,987.2
2023-11-15T02:30:29.914Z,987.1
2023-11-15T02:31:33.497Z,987.2
2023-11-15T02:32:37.732Z,987.2
2023-11-15T02:36:53.826Z,987.2
2023-11-15T02:37:55.693Z,987.1
2023-11-15T02:38:59.004Z,987.1
2023-11-15T02:40:04.709Z,987.1
2023-11-15T02:41:09.041Z,987.1
2023-11-15T02:42:13.113Z,987.1
2023-11-15T02:43:15.889Z,987.1
2023-11-15T02:44:21.118Z,987.1
2023-11-15T02:45:25.031Z,987.1
2023-11-15T02:46:30.207Z,987.1
2023-11-15T02:47:32.023Z,987.1
2023-11-15T02:48:32.711Z,987.1
2023-11-15T02:49:37.856Z,987.1
2023-11-15T02:50:41.327Z,987.1
2023-11-15T02:51:48.846Z,987.1
2023-11-15T02:52:52.855Z,987.1
2023-11-15T02:53:54.941Z,987
2023-11-15T02:55:02.701Z,987.1
2023-11-15T02:56:03.677Z,987.1
2023-11-15T02:57:09.177Z,987.1
2023-11-15T02:58:11.920Z,986.7
2023-11-15T02:59:14.795Z,987.1
2023-11-15T03:00:19.606Z,987.1
2023-11-15T03:01:26.606Z,987.2
2023-11-15T03:02:32.167Z,987.1
2023-11-15T03:03:41.557Z,987.1
2023-11-15T03:04:49.900Z,987.1
2023-11-15T03:05:52.011Z,987.2
2023-11-15T03:06:57.343Z,987.1
2023-11-15T03:07:59.605Z,987.1
2023-11-15T03:09:04.922Z,987.1
2023-11-15T03:10:12.961Z,987.1
2023-11-15T03:11:16.279Z,987.2
2023-11-15T03:12:22.944Z,987.2
2023-11-15T03:13:30.880Z,987.2
2023-11-15T03:14:31.948Z,987.3
2023-11-15T03:15:38.977Z,987.3
2023-11-15T03:16:40.782Z,987.2
2023-11-15T03:17:42.079Z,987.2
2023-11-15T03:18:46.696Z,987.3
2023-11-15T03:19:47.680Z,987.3
2023-11-15T03:20:53.434Z,987.3
2023-11-15T03:21:55.924Z,987.3
2023-11-15T03:23:01.163Z,987.3
2023-11-15T03:24:06.896Z,987.3
2023-11-15T03:25:08.879Z,987.3
2023-11-15T03:26:10.708Z,987.3
2023-11-15T03:27:12.669Z,987.3
2023-11-15T03:28:18.547Z,987.4
2023-11-15T03:29:19.721Z,987.3
2023-11-15T03:30:24.794Z,987.3
2023-11-15T03:31:26.807Z,987.3
2023-11-15T03:32:33.199Z,987.3
2023-11-15T03:33:42.020Z,987.3
2023-11-15T03:34:49.034Z,987.4
2023-11-15T03:35:51.813Z,987.4
2023-11-15T03:36:52.680Z,987.3
2023-11-15T03:37:58.337Z,986.7
2023-11-15T03:39:03.175Z,987.2
2023-11-15T03:40:09.012Z,987.4
2023-11-15T03:41:12.709Z,987.4
2023-11-15T03:42:13.919Z,987.4
2023-11-15T03:43:19.147Z,987.4
2023-11-15T03:44:20.992Z,987.4
2023-11-15T03:45:27.321Z,987.5
2023-11-15T03:46:30.724Z,987.5
2023-11-15T03:47:35.974Z,987.4
2023-11-15T03:48:37.938Z,987.4
2023-11-15T03:49:43.277Z,987.5
2023-11-15T03:50:44.733Z,987.4
2023-11-15T03:51:46.970Z,987.4
2023-11-15T03:52:49.155Z,987.1
2023-11-15T03:53:56.479Z,987.4
2023-11-15T03:55:02.470Z,986.9
2023-11-15T03:56:07.916Z,987.4
2023-11-15T03:57:12.947Z,987.5
2023-11-15T03:58:17.718Z,986.8
2023-11-15T03:59:24.258Z,987.4
2023-11-15T04:00:30.133Z,987.6
2023-11-15T04:01:49.004Z,987.5
2023-11-15T04:02:44.806Z,987.6
2023-11-15T04:03:46.950Z,987.6
2023-11-15T04:04:51.984Z,987.6
2023-11-15T04:06:00.853Z,987.6
2023-11-15T04:07:03.163Z,987.7
2023-11-15T04:08:04.817Z,987.6
2023-11-15T04:09:05.834Z,987.6
2023-11-15T04:10:08.011Z,987.6
2023-11-15T04:11:12.215Z,987.8
2023-11-15T04:12:13.774Z,987.7
2023-11-15T04:13:14.997Z,987.7
2023-11-15T04:14:16.700Z,987.7
2023-11-15T04:15:22.394Z,987.7
2023-11-15T04:16:24.869Z,987.5
2023-11-15T04:17:26.064Z,987.7
2023-11-15T04:18:27.890Z,987.7
2023-11-15T04:19:29.029Z,987.7
2023-11-15T04:20:30.929Z,987.7
2023-11-15T04:21:33.883Z,987.6
2023-11-15T04:22:34.721Z,987.7
2023-11-15T04:23:36.040Z,987.7
2023-11-15T04:24:36.709Z,987.7
2023-11-15T04:25:39.867Z,987.7
2023-11-15T04:26:40.728Z,987.7
2023-11-15T04:27:43.827Z,987.8
2023-11-15T04:28:44.706Z,987.8
2023-11-15T04:29:50.578Z,987.8
2023-11-15T04:30:57.511Z,987.9
2023-11-15T04:31:58.712Z,987.8
2023-11-15T04:33:04.008Z,987.8
2023-11-15T04:34:11.971Z,987.8
2023-11-15T04:35:12.946Z,987.8
2023-11-15T04:36:15.136Z,987.9
2023-11-15T04:37:16.743Z,987.9
2023-11-15T04:38:30.160Z,987.9
2023-11-15T04:39:31.720Z,987.9
2023-11-15T04:40:32.746Z,987.9
2023-11-15T04:41:34.864Z,987.9
2023-11-15T04:42:36.929Z,987.9
2023-11-15T04:43:41.180Z,987.9
2023-11-15T04:44:45.598Z,988
2023-11-15T04:45:48.808Z,987.9
2023-11-15T04:46:50.927Z,988
2023-11-15T04:47:52.987Z,988
2023-11-15T04:48:54.853Z,987.4
2023-11-15T04:49:56.901Z,987.8
2023-11-15T04:50:58.886Z,987.9
2023-11-15T04:52:00.892Z,987.9
2023-11-15T04:53:02.831Z,988
2023-11-15T04:54:07.311Z,988
2023-11-15T04:55:10.317Z,988
2023-11-15T04:56:14.813Z,988.1
2023-11-15T04:57:15.759Z,988
2023-11-15T04:58:16.854Z,988
2023-11-15T04:59:18.865Z,988
2023-11-15T05:00:20.877Z,988.1
2023-11-15T05:01:21.851Z,988.1
2023-11-15T05:02:25.132Z,988.1
2023-11-15T05:03:31.945Z,988.1
2023-11-15T05:04:32.815Z,988.1
2023-11-15T05:05:37.715Z,988.1
2023-11-15T05:06:39.807Z,988.1
2023-11-15T05:07:41.721Z,988.2
2023-11-15T05:08:43.590Z,988.2
2023-11-15T05:09:44.733Z,988.2
2023-11-15T05:10:45.993Z,988.2
2023-11-15T05:11:46.769Z,988.2
2023-11-15T05:12:48.915Z,988.2
2023-11-15T05:13:50.732Z,988.3
2023-11-15T05:14:51.884Z,988.3
2023-11-15T05:15:52.910Z,988.4
2023-11-15T05:17:00.581Z,988.4
2023-11-15T05:18:01.812Z,988.4
2023-11-15T05:19:03.752Z,988.3
2023-11-15T05:20:04.873Z,988.4
2023-11-15T05:21:09.805Z,988.4
2023-11-15T05:22:13.071Z,988.4
2023-11-15T05:23:15.997Z,988.4
2023-11-15T05:24:17.874Z,988.3
2023-11-15T05:25:20.079Z,988.3
2023-11-15T05:26:21.849Z,988.3
2023-11-15T05:27:24.758Z,988.4
2023-11-15T05:28:27.139Z,988.5
2023-11-15T05:29:31.767Z,988.4
2023-11-15T05:30:38.628Z,988.4
2023-11-15T05:31:40.889Z,988.5
2023-11-15T05:32:43.812Z,988.5
2023-11-15T05:33:44.754Z,988.5
2023-11-15T05:34:45.991Z,988.5
2023-11-15T05:35:47.847Z,989
2023-11-15T05:36:49.865Z,988.6
2023-11-15T05:37:54.619Z,988.6
2023-11-15T05:38:58.427Z,988.6
2023-11-15T05:40:05.272Z,988.6
2023-11-15T05:41:06.758Z,988.6
2023-11-15T05:42:11.161Z,988.7
2023-11-15T05:43:12.752Z,988.6
2023-11-15T05:44:14.972Z,988.6
2023-11-15T05:45:16.781Z,988.6
2023-11-15T05:46:17.829Z,988.7
2023-11-15T05:47:18.759Z,988.7
2023-11-15T05:48:22.160Z,988.8
2023-11-15T05:49:23.783Z,988.8
2023-11-15T05:50:24.813Z,988.8
2023-11-15T05:51:26.871Z,988.8
2023-11-15T05:52:29.052Z,988.8
2023-11-15T05:53:32.173Z,988.8
2023-11-15T05:54:33.867Z,988.8
2023-11-15T05:55:34.767Z,988.8
2023-11-15T05:56:36.780Z,988.8
2023-11-15T05:57:38.804Z,988.9
2023-11-15T05:58:43.545Z,988.9
2023-11-15T05:59:46.130Z,988.9
2023-11-15T06:00:50.542Z,988.9
2023-11-15T06:01:52.940Z,988.9
2023-11-15T06:02:55.154Z,989
2023-11-15T06:03:59.056Z,989
2023-11-15T06:05:00.916Z,989
2023-11-15T06:06:02.136Z,989
2023-11-15T06:07:06.876Z,989
2023-11-15T06:08:09.911Z,989
2023-11-15T06:09:10.774Z,989
2023-11-15T06:10:14.265Z,989
2023-11-15T06:11:14.243Z,989
2023-11-15T06:12:17.318Z,989.1
2023-11-15T06:13:24.600Z,989.1
2023-11-15T06:14:28.642Z,989.2
2023-11-15T06:15:31.805Z,989.2
2023-11-15T06:16:32.774Z,989.1
2023-11-15T06:17:40.183Z,989.2
2023-11-15T06:18:41.188Z,989.2
2023-11-15T06:19:47.533Z,989.2
2023-11-15T06:20:49.280Z,989.3
2023-11-15T06:21:51.903Z,989.3
2023-11-15T06:22:52.866Z,989.3
2023-11-15T06:23:54.109Z,989.3
2023-11-15T06:24:55.939Z,989.3
2023-11-15T06:26:00.981Z,989.3
2023-11-15T06:27:05.639Z,989.3
2023-11-15T06:28:06.927Z,988.8
2023-11-15T06:29:10.099Z,989.2
2023-11-15T06:30:12.025Z,989.3
2023-11-15T06:31:15.784Z,989.2
2023-11-15T06:32:21.044Z,989.3
2023-11-15T06:33:23.095Z,989.4
2023-11-15T06:34:29.879Z,989.5
2023-11-15T06:35:33.719Z,989.5
2023-11-15T06:36:39.937Z,989.5
2023-11-15T06:37:40.996Z,989.5
2023-11-15T06:38:47.062Z,989.5
2023-11-15T06:39:56.669Z,989.5
2023-11-15T06:41:01.799Z,989.5
2023-11-15T06:42:06.736Z,989.5
2023-11-15T06:43:15.749Z,989.5
2023-11-15T06:44:22.431Z,989.6
2023-11-15T06:45:24.847Z,989.6
2023-11-15T06:46:30.228Z,989.6
2023-11-15T06:47:33.030Z,989.7
2023-11-15T06:48:36.247Z,989.7
2023-11-15T06:49:40.788Z,989.7
2023-11-15T06:50:46.869Z,989.7
2023-11-15T06:52:03.709Z,989.8
2023-11-15T06:53:09.925Z,989.8
2023-11-15T06:54:11.828Z,989.8
2023-11-15T06:55:12.925Z,989.8
2023-11-15T06:56:17.629Z,989.8
2023-11-15T06:57:18.935Z,989.8
2023-11-15T06:58:24.736Z,989.9
2023-11-15T06:59:30.885Z,989.9
2023-11-15T07:00:35.028Z,989.9
2023-11-15T07:01:37.798Z,989.9
2023-11-15T07:02:41.062Z,989.3
2023-11-15T07:03:42.912Z,989.2
2023-11-15T07:04:45.818Z,989.8
2023-11-15T07:05:49.680Z,990.1
2023-11-15T07:06:52.027Z,990
2023-11-15T07:07:55.785Z,990.1
2023-11-15T07:08:58.048Z,990.1
2023-11-15T07:10:01.300Z,990.1
2023-11-15T07:11:00.844Z,990.1
2023-11-15T07:12:05.743Z,990.2
2023-11-15T07:13:07.889Z,990.2
2023-11-15T07:14:11.793Z,989.5
2023-11-15T07:15:12.859Z,990
2023-11-15T07:16:16.396Z,990.2
2023-11-15T07:17:19.944Z,990.2
2023-11-15T07:18:21.087Z,990.2
2023-11-15T07:19:23.185Z,990.2
2023-11-15T07:20:29.024Z,990.2
2023-11-15T07:21:32.659Z,990.3
2023-11-15T07:22:36.457Z,990.3
2023-11-15T07:23:37.948Z,990.3
2023-11-15T07:24:42.593Z,990.3
2023-11-15T07:25:44.866Z,990.3
2023-11-15T07:26:46.980Z,990.3
2023-11-15T07:27:51.471Z,990.3
2023-11-15T07:28:53.084Z,990.4
2023-11-15T07:29:56.243Z,990.4
2023-11-15T07:30:57.943Z,990.4
2023-11-15T07:31:58.809Z,990.4
2023-11-15T07:33:02.948Z,990.5
2023-11-15T07:34:06.907Z,990.4
2023-11-15T07:35:10.962Z,990.5
2023-11-15T07:36:16.031Z,990.5
2023-11-15T07:37:17.938Z,990.5
2023-11-15T07:38:21.470Z,990.7
2023-11-15T07:39:22.919Z,990.5
2023-11-15T07:40:24.920Z,990.5
2023-11-15T07:41:30.501Z,990.5
2023-11-15T07:42:38.446Z,990.5
2023-11-15T07:43:39.960Z,990.6
2023-11-15T07:44:40.834Z,990.5
2023-11-15T07:45:44.874Z,989.9
2023-11-15T07:46:45.864Z,990.4
2023-11-15T07:47:47.309Z,990.6
2023-11-15T07:48:50.985Z,991
2023-11-15T07:49:52.285Z,990.7
2023-11-15T07:50:57.332Z,990.6
2023-11-15T07:52:02.681Z,990.7
2023-11-15T07:53:07.773Z,990.7
2023-11-15T07:54:13.769Z,990.8
2023-11-15T07:55:23.129Z,990.8
2023-11-15T07:56:24.344Z,990.8
2023-11-15T07:57:28.645Z,990.9
2023-11-15T07:58:38.034Z,990.8
2023-11-15T07:59:39.209Z,990.9
2023-11-15T08:00:41.176Z,990.9
2023-11-15T08:01:47.048Z,990.9
2023-11-15T08:02:47.200Z,990.9
2023-11-15T08:03:50.926Z,991
2023-11-15T08:04:53.227Z,991
2023-11-15T08:05:57.259Z,991
2023-11-15T08:07:00.085Z,991
2023-11-15T08:08:01.017Z,991
2023-11-15T08:09:01.926Z,991
2023-11-15T08:10:05.952Z,991.1
2023-11-15T08:11:07.967Z,991.1
2023-11-15T08:12:15.939Z,990.9
2023-11-15T08:13:19.778Z,991
2023-11-15T08:14:24.915Z,991.1
2023-11-15T08:15:26.134Z,991.1
2023-11-15T08:16:28.896Z,991.1
2023-11-15T08:17:33.211Z,991.2
2023-11-15T08:18:35.085Z,991.1
2023-11-15T08:19:36.850Z,991.2
2023-11-15T08:20:43.052Z,991.2
2023-11-15T08:21:44.919Z,991.2
2023-11-15T08:22:45.960Z,991.3
2023-11-15T08:23:47.106Z,991.3
2023-11-15T08:24:51.503Z,991.3
2023-11-15T08:25:52.942Z,991.3
2023-11-15T08:26:55.167Z,991.4
2023-11-15T08:27:59.040Z,991.3
2023-11-15T08:28:58.907Z,991.4
2023-11-15T08:30:01.413Z,991.4
2023-11-15T08:31:06.640Z,991.4
2023-11-15T08:32:07.938Z,991.5
2023-11-15T08:33:14.401Z,991.6
2023-11-15T08:34:17.340Z,991.5
2023-11-15T08:35:18.950Z,991.5
2023-11-15T08:36:20.082Z,991.5
2023-11-15T08:37:22.116Z,991.5
2023-11-15T08:38:23.988Z,991.6
2023-11-15T08:39:29.134Z,991.6
2023-11-15T08:40:30.955Z,991.6
2023-11-15T08:41:33.137Z,991.6
2023-11-15T08:42:34.951Z,991.6
2023-11-15T08:43:37.502Z,991.6
2023-11-15T08:44:37.705Z,991.7
2023-11-15T08:45:49.184Z,991.8
2023-11-15T08:46:54.172Z,991.8
2023-11-15T08:48:03.107Z,991.8
2023-11-15T08:49:05.022Z,991.8
2023-11-15T08:50:05.953Z,991.8
2023-11-15T08:51:07.079Z,991.8
2023-11-15T08:52:09.217Z,991.9
2023-11-15T08:53:14.476Z,991.9
2023-11-15T08:54:18.899Z,991.9
2023-11-15T08:55:22.685Z,991.8
2023-11-15T08:56:23.888Z,991.8
2023-11-15T08:57:29.175Z,991.8
2023-11-15T08:58:29.983Z,991.8
2023-11-15T08:59:30.928Z,991.7
2023-11-15T09:00:31.938Z,991.7
2023-11-15T09:01:35.196Z,991.7
2023-11-15T09:02:37.031Z,991.7
2023-11-15T09:03:41.282Z,991.7
2023-11-15T09:04:44.978Z,991.8
2023-11-15T09:05:46.046Z,991.8
2023-11-15T09:06:46.966Z,991.8
2023-11-15T09:07:51.721Z,991.7
2023-11-15T09:08:52.879Z,991.7
2023-11-15T09:09:53.963Z,991.7
2023-11-15T09:10:54.917Z,991.8
2023-11-15T09:11:59.791Z,991.8
2023-11-15T09:13:01.022Z,991.8
2023-11-15T09:14:02.928Z,991.8
2023-11-15T09:15:05.459Z,992
2023-11-15T09:16:09.436Z,991.9
2023-11-15T09:17:11.953Z,991.9
2023-11-15T09:18:12.958Z,991.9
2023-11-15T09:19:16.837Z,991.9
2023-11-15T09:20:19.195Z,992
2023-11-15T09:21:21.952Z,992
2023-11-15T09:22:22.923Z,992
2023-11-15T09:23:25.359Z,992.1
2023-11-15T09:24:24.975Z,992.1
2023-11-15T09:25:28.844Z,991.4
2023-11-15T09:26:29.912Z,992
2023-11-15T09:27:30.947Z,992.2
2023-11-15T09:28:31.969Z,992.2
2023-11-15T09:29:36.948Z,992.2
2023-11-15T09:30:37.930Z,992.2
2023-11-15T09:31:39.183Z,992.1
2023-11-15T09:32:41.214Z,992.2
2023-11-15T09:33:46.154Z,992.2
2023-11-15T09:34:50.100Z,992.2
2023-11-15T09:35:54.647Z,992.2
2023-11-15T09:36:53.269Z,992.1
2023-11-15T09:37:57.243Z,992.1
2023-11-15T09:38:57.990Z,992.2
2023-11-15T09:39:58.988Z,992.2
2023-11-15T09:41:02.689Z,992.2
2023-11-15T09:42:04.162Z,992.2
2023-11-15T09:43:05.168Z,992.1
2023-11-15T09:44:12.139Z,992.1
2023-11-15T09:45:12.957Z,992.1
2023-11-15T09:46:15.613Z,992.1
2023-11-15T09:47:17.037Z,992.1
2023-11-15T09:48:19.301Z,992
2023-11-15T09:49:21.180Z,992.1
2023-11-15T09:50:25.950Z,990.8
2023-11-15T09:51:27.974Z,991.8
2023-11-15T09:52:32.975Z,992.1
2023-11-15T09:53:34.501Z,992.2
2023-11-15T09:54:35.307Z,992.1
2023-11-15T09:55:37.596Z,992.1
2023-11-15T09:56:42.021Z,992.1
2023-11-15T09:57:42.965Z,992.1
2023-11-15T09:58:44.011Z,992.1
2023-11-15T09:59:52.749Z,992.1
2023-11-15T10:00:50.421Z,992.2
2023-11-15T10:01:53.152Z,992.2
2023-11-15T10:02:57.026Z,992.2
2023-11-15T10:03:59.050Z,992.2
2023-11-15T10:05:03.724Z,992.3
2023-11-15T10:06:05.392Z,992.3
2023-11-15T10:07:07.320Z,992.3
2023-11-15T10:08:11.673Z,992.1
2023-11-15T10:09:13.978Z,991.9
2023-11-15T10:10:16.003Z,992.2
2023-11-15T10:11:19.743Z,992.3
2023-11-15T10:12:20.975Z,992
2023-11-15T10:13:24.629Z,992.3
2023-11-15T10:14:25.996Z,992.3
2023-11-15T10:15:27.041Z,992.4
2023-11-15T10:16:28.173Z,992.4
2023-11-15T10:17:33.666Z,992.5
2023-11-15T10:18:38.883Z,992.5
2023-11-15T10:19:42.866Z,992.5
2023-11-15T10:20:42.303Z,992.5
2023-11-15T10:21:45.972Z,992.5
2023-11-15T10:22:58.347Z,992.5
2023-11-15T10:24:04.964Z,992.5
2023-11-15T10:25:07.477Z,992.6
2023-11-15T10:26:10.047Z,992.6
2023-11-15T10:27:23.617Z,992.6
2023-11-15T10:28:27.876Z,992.6
2023-11-15T10:29:33.083Z,992.6
2023-11-15T10:30:34.008Z,992.7
2023-11-15T10:31:34.925Z,992.7
2023-11-15T10:32:36.356Z,992.7
2023-11-15T10:33:40.585Z,992.1
2023-11-15T10:34:43.207Z,992.5
2023-11-15T10:35:50.038Z,992.8
2023-11-15T10:36:54.121Z,992.6
2023-11-15T10:37:53.357Z,992.7
2023-11-15T10:38:55.010Z,992.8
2023-11-15T10:39:56.131Z,992.8
2023-11-15T10:40:58.065Z,992.7
2023-11-15T10:41:59.027Z,992.8
2023-11-15T10:43:03.829Z,992.8
2023-11-15T10:44:05.184Z,992.8
2023-11-15T10:45:07.299Z,992.8
2023-11-15T10:46:11.784Z,992.8
2023-11-15T10:47:15.399Z,992.7
2023-11-15T10:48:19.150Z,992.8
2023-11-15T10:49:20.327Z,992.8
2023-11-15T10:50:22.137Z,992.8
2023-11-15T10:51:25.925Z,992.8
2023-11-15T10:52:27.131Z,992.8
2023-11-15T10:53:32.898Z,992.9
2023-11-15T10:54:37.073Z,992.9
2023-11-15T10:55:44.469Z,992.8
2023-11-15T10:56:56.338Z,992.9
2023-11-15T10:58:03.702Z,992.8
2023-11-15T10:59:08.280Z,992.9
2023-11-15T11:00:14.254Z,992.9
2023-11-15T11:01:16.053Z,992.8
2023-11-15T11:02:18.181Z,992.8
2023-11-15T11:03:21.154Z,992.8
2023-11-15T11:04:25.376Z,992.9
2023-11-15T11:05:32.423Z,993.1
2023-11-15T11:06:36.388Z,992.7
2023-11-15T11:07:39.551Z,992.7
2023-11-15T11:08:41.062Z,993
2023-11-15T11:09:43.350Z,993.3
2023-11-15T11:10:47.833Z,993.2
2023-11-15T11:11:50.273Z,993.1
2023-11-15T11:12:51.040Z,993.1
2023-11-15T11:13:53.263Z,993.1
2023-11-15T11:14:54.963Z,993.2
2023-11-15T11:15:57.094Z,993.2
2023-11-15T11:16:59.304Z,993.3
2023-11-15T11:18:02.458Z,993.2
2023-11-15T11:19:06.868Z,993.1
2023-11-15T11:20:10.133Z,992.9
2023-11-15T11:21:12.443Z,993.3
2023-11-15T11:22:21.387Z,993.2
2023-11-15T11:23:24.109Z,993.1
2023-11-15T11:24:25.111Z,992.8
2023-11-15T11:25:29.461Z,993.1
2023-11-15T11:26:32.261Z,993.1
2023-11-15T11:27:33.955Z,992.7
2023-11-15T11:28:34.997Z,993.1
2023-11-15T11:29:36.109Z,993.2
2023-11-15T11:30:38.069Z,993.3
2023-11-15T11:31:39.028Z,993.2
2023-11-15T11:32:44.015Z,992.9
2023-11-15T11:33:47.434Z,993.2
2023-11-15T11:34:50.380Z,993.3
2023-11-15T11:35:52.416Z,993.4
2023-11-15T11:36:54.282Z,993.1
2023-11-15T11:37:58.077Z,993.3
2023-11-15T11:39:00.115Z,993.4
2023-11-15T11:40:02.019Z,993.5
2023-11-15T11:41:03.189Z,993.4
2023-11-15T11:42:05.040Z,993.5
2023-11-15T11:43:06.188Z,993.5
2023-11-15T11:44:07.123Z,993.2
2023-11-15T11:45:11.865Z,993.5
2023-11-15T11:46:13.275Z,993.6
2023-11-15T11:47:17.059Z,993.6
2023-11-15T11:48:21.654Z,993.5
2023-11-15T11:49:22.986Z,993.6
2023-11-15T11:50:30.734Z,993.6
2023-11-15T11:51:33.264Z,993.6
2023-11-15T11:52:35.040Z,993.6
2023-11-15T11:53:36.975Z,993.7
2023-11-15T11:54:38.002Z,993.7
2023-11-15T11:55:39.949Z,993.7
2023-11-15T11:56:41.004Z,993.8
2023-11-15T11:57:42.995Z,993.8
2023-11-15T11:58:44.143Z,993.8
2023-11-15T11:59:45.004Z,993.9
2023-11-15T12:00:52.734Z,993.8
2023-11-15T12:01:54.287Z,993.9
2023-11-15T12:03:03.040Z,993.9
2023-11-15T12:04:00.136Z,993.8
2023-11-15T12:05:01.008Z,993.9
2023-11-15T12:06:02.046Z,994
2023-11-15T12:07:03.225Z,993.9
2023-11-15T12:08:05.093Z,993.9
2023-11-15T12:09:07.208Z,994
2023-11-15T12:10:07.989Z,994
2023-11-15T12:11:11.905Z,994
2023-11-15T12:12:13.097Z,993.8
2023-11-15T12:13:13.989Z,993.9
2023-11-15T12:14:15.277Z,993.6
2023-11-15T12:15:18.179Z,994
2023-11-15T12:16:21.347Z,994.1
2023-11-15T12:17:27.827Z,994.1
2023-11-15T12:18:32.305Z,993.1
2023-11-15T12:19:37.125Z,993.8
2023-11-15T12:20:38.022Z,994
2023-11-15T12:21:42.313Z,994.1
2023-11-15T12:22:44.009Z,994.2
2023-11-15T12:23:45.256Z,994.2
2023-11-15T12:24:48.081Z,994.2
2023-11-15T12:25:50.017Z,994.3
2023-11-15T12:26:52.729Z,994.2
2023-11-15T12:27:55.193Z,994.4
2023-11-15T12:28:57.009Z,994.3
2023-11-15T12:29:59.011Z,994.2
2023-11-15T12:31:00.464Z,994.2
2023-11-15T12:32:03.124Z,994.2
2023-11-15T12:33:04.166Z,994.2
2023-11-15T12:34:06.029Z,994.2
2023-11-15T12:35:07.172Z,994.2
2023-11-15T12:36:08.093Z,994.1
2023-11-15T12:37:10.227Z,994.2
2023-11-15T12:38:12.188Z,994.3
2023-11-15T12:39:14.264Z,994.2
2023-11-15T12:40:17.381Z,994.2
2023-11-15T12:41:20.190Z,994.2
2023-11-15T12:42:21.100Z,994.3
2023-11-15T12:43:24.403Z,994.4
2023-11-15T12:44:26.046Z,994.4
2023-11-15T12:45:27.071Z,994.6
2023-11-15T12:46:29.073Z,994.3
2023-11-15T12:47:37.096Z,993.2
2023-11-15T12:48:41.840Z,994.2
2023-11-15T12:49:43.042Z,994.4
2023-11-15T12:50:44.442Z,994.5
2023-11-15T12:51:49.086Z,994.8
2023-11-15T12:52:53.143Z,994.7
2023-11-15T12:53:53.905Z,994.7
2023-11-15T12:54:57.984Z,994.8
2023-11-15T12:56:00.245Z,994.8
2023-11-15T12:57:05.087Z,994.8
2023-11-15T12:58:07.023Z,994.8
2023-11-15T12:59:09.192Z,994.8
2023-11-15T13:00:10.128Z,994.8
2023-11-15T13:01:11.135Z,994.8
2023-11-15T13:02:16.545Z,994.9
2023-11-15T13:03:19.379Z,994.8
2023-11-15T13:04:22.456Z,994.9
2023-11-15T13:05:27.012Z,994.9
2023-11-15T13:06:30.568Z,994.9
2023-11-15T13:07:31.062Z,994.7
2023-11-15T13:08:34.091Z,994.9
2023-11-15T13:09:42.886Z,995
2023-11-15T13:10:45.116Z,995
2023-11-15T13:11:48.134Z,995
2023-11-15T13:12:51.584Z,995
2023-11-15T13:14:00.845Z,995
2023-11-15T13:15:06.108Z,994.9
2023-11-15T13:16:10.926Z,995
2023-11-15T13:17:14.650Z,995.1
2023-11-15T13:18:17.169Z,995.1
2023-11-15T13:19:18.077Z,995.1
2023-11-15T13:20:19.204Z,995.1
2023-11-15T13:21:21.320Z,995.1
2023-11-15T13:22:23.022Z,995.1
2023-11-15T13:23:25.001Z,995.1
2023-11-15T13:24:27.471Z,994.8
2023-11-15T13:25:30.315Z,995.1
2023-11-15T13:26:31.060Z,995.2
2023-11-15T13:27:33.224Z,995.3
2023-11-15T13:28:35.260Z,995.2
2023-11-15T13:29:36.994Z,995.2
2023-11-15T13:30:38.601Z,995.3
2023-11-15T13:31:39.998Z,995.3
2023-11-15T13:32:44.189Z,995.3
2023-11-15T13:33:45.106Z,995.2
2023-11-15T13:34:49.789Z,995.4
2023-11-15T13:35:52.043Z,995.3
2023-11-15T13:36:55.166Z,995.3
2023-11-15T13:37:56.048Z,995.4
2023-11-15T13:38:58.225Z,995.3
2023-11-15T13:40:01.064Z,995.4
2023-11-15T13:41:03.153Z,995.4
2023-11-15T13:42:05.071Z,995.4